createdAt,value
2023-04-02T00:01:40.658Z,2.00
2023-04-02T00:04:26.564Z,2.00
2023-04-02T00:07:33.617Z,2.00
2023-04-02T00:10:17.034Z,2.00
2023-04-02T00:13:05.995Z,1.90
2023-04-02T00:15:42.509Z,1.90
2023-04-02T00:18:19.756Z,2.10
2023-04-02T00:21:04.863Z,2.20
2023-04-02T00:23:44.249Z,1.90
2023-04-02T00:26:35.399Z,2.10
2023-04-02T00:29:13.700Z,1.90
2023-04-02T00:31:50.605Z,2.10
2023-04-02T00:34:31.827Z,2.00
2023-04-02T00:37:11.587Z,1.90
2023-04-02T00:39:48.241Z,2.20
2023-04-02T00:42:26.702Z,2.00
2023-04-02T00:45:06.602Z,2.00
2023-04-02T00:47:41.996Z,2.10
2023-04-02T00:50:32.220Z,1.80
2023-04-02T00:53:23.680Z,2.00
2023-04-02T00:56:00.560Z,2.10
2023-04-02T00:58:37.801Z,2.20
2023-04-02T01:01:25.594Z,2.10
2023-04-02T01:04:02.045Z,2.00
2023-04-02T01:06:40.351Z,2.00
2023-04-02T01:09:37.697Z,1.90
2023-04-02T01:12:52.048Z,2.10
2023-04-02T01:15:33.522Z,2.10
2023-04-02T01:18:26.948Z,1.80
2023-04-02T01:21:37.155Z,2.00
2023-04-02T01:24:13.792Z,1.90
2023-04-02T01:27:03.091Z,2.00
2023-04-02T01:29:41.091Z,2.10
2023-04-02T01:32:18.348Z,1.80
2023-04-02T01:34:55.774Z,2.10
2023-04-02T01:37:40.646Z,2.10
2023-04-02T01:40:35.869Z,1.90
2023-04-02T01:43:20.072Z,1.70
2023-04-02T01:46:00.524Z,1.90
2023-04-02T01:48:36.122Z,1.90
2023-04-02T01:51:28.368Z,1.70
2023-04-02T01:54:08.809Z,1.90
2023-04-02T01:56:47.352Z,1.80
2023-04-02T01:59:24.614Z,1.90
2023-04-02T02:02:03.749Z,1.80
2023-04-02T02:04:38.522Z,1.80
2023-04-02T02:07:20.732Z,1.60
2023-04-02T02:09:56.048Z,2.00
2023-04-02T02:12:32.639Z,2.00
2023-04-02T02:15:12.123Z,1.90
2023-04-02T02:17:46.325Z,1.90
2023-04-02T02:20:23.221Z,1.70
2023-04-02T02:23:00.385Z,1.80
2023-04-02T02:25:39.381Z,1.70
2023-04-02T02:28:18.562Z,1.80
2023-04-02T02:31:02.040Z,1.80
2023-04-02T02:33:41.120Z,1.70
2023-04-02T02:36:24.230Z,1.90
2023-04-02T02:39:05.269Z,1.80
2023-04-02T02:41:46.225Z,1.60
2023-04-02T02:44:24.103Z,2.00
2023-04-02T02:47:02.326Z,1.70
2023-04-02T02:49:39.480Z,1.90
2023-04-02T02:52:20.852Z,1.80
2023-04-02T02:55:05.061Z,1.70
2023-04-02T02:57:46.532Z,1.80
2023-04-02T03:00:25.300Z,1.60
2023-04-02T03:03:02.605Z,1.60
2023-04-02T03:05:38.646Z,1.70
2023-04-02T03:08:20.809Z,1.60
2023-04-02T03:11:01.767Z,1.70
2023-04-02T03:13:40.227Z,1.80
2023-04-02T03:16:22.754Z,1.80
2023-04-02T03:19:03.554Z,1.70
2023-04-02T03:21:48.930Z,1.90
2023-04-02T03:24:32.611Z,1.90
2023-04-02T03:27:15.270Z,1.70
2023-04-02T03:30:06.066Z,1.70
2023-04-02T03:32:44.430Z,1.90
2023-04-02T03:35:28.350Z,2.00
2023-04-02T03:38:09.188Z,1.90
2023-04-02T03:40:50.728Z,1.70
2023-04-02T03:43:32.770Z,1.90
2023-04-02T03:48:56.294Z,1.80
2023-04-02T03:51:34.003Z,2.00
2023-04-02T03:54:15.507Z,1.80
2023-04-02T03:56:50.775Z,2.00
2023-04-02T03:59:35.122Z,1.90
2023-04-02T04:02:25.844Z,2.00
2023-04-02T04:05:06.250Z,2.00
2023-04-02T04:07:46.882Z,2.10
2023-04-02T04:10:27.215Z,2.20
2023-04-02T04:13:10.765Z,2.10
2023-04-02T04:15:52.666Z,2.00
2023-04-02T04:18:38.028Z,1.90
2023-04-02T04:21:30.368Z,2.10
2023-04-02T04:24:13.997Z,2.20
2023-04-02T04:26:56.143Z,2.10
2023-04-02T04:29:45.911Z,2.30
2023-04-02T04:32:32.772Z,2.00
2023-04-02T04:35:18.498Z,2.20
2023-04-02T04:38:00.238Z,2.00
2023-04-02T04:40:37.428Z,2.30
2023-04-02T04:43:19.932Z,2.10
2023-04-02T04:46:04.231Z,2.10
2023-04-02T04:48:49.044Z,1.90
2023-04-02T04:51:32.461Z,1.90
2023-04-02T04:54:11.492Z,2.00
2023-04-02T04:56:55.446Z,2.30
2023-04-02T04:59:33.996Z,2.20
2023-04-02T05:02:16.192Z,2.10
2023-04-02T05:04:56.228Z,2.10
2023-04-02T05:07:40.437Z,2.00
2023-04-02T05:10:25.099Z,2.30
2023-04-02T05:13:08.568Z,2.20
2023-04-02T05:15:54.931Z,2.30
2023-04-02T05:18:35.781Z,2.10
2023-04-02T05:21:17.783Z,2.30
2023-04-02T05:24:05.059Z,2.20
2023-04-02T05:26:45.604Z,2.20
2023-04-02T05:29:24.941Z,2.40
2023-04-02T05:32:07.549Z,2.30
2023-04-02T05:34:49.905Z,2.40
2023-04-02T05:37:31.817Z,2.20
2023-04-02T05:40:20.749Z,2.20
2023-04-02T05:42:58.546Z,2.40
2023-04-02T05:45:39.039Z,2.20
2023-04-02T05:48:24.325Z,2.30
2023-04-02T05:51:01.523Z,2.40
2023-04-02T05:53:41.259Z,2.50
2023-04-02T05:56:30.168Z,2.30
2023-04-02T05:59:15.489Z,2.20
2023-04-02T06:01:55.747Z,2.50
2023-04-02T06:04:35.624Z,2.30
2023-04-02T06:07:15.067Z,2.50
2023-04-02T06:09:55.153Z,2.30
2023-04-02T06:12:36.700Z,2.50
2023-04-02T06:15:21.560Z,2.40
2023-04-02T06:18:06.717Z,2.40
2023-04-02T06:20:43.296Z,2.40
2023-04-02T06:23:24.486Z,2.50
2023-04-02T06:26:05.144Z,2.30
2023-04-02T06:28:46.824Z,2.30
2023-04-02T06:31:32.404Z,2.30
2023-04-02T06:34:15.728Z,2.20
2023-04-02T06:36:51.960Z,2.30
2023-04-02T06:39:29.238Z,2.30
2023-04-02T06:42:12.043Z,2.10
2023-04-02T06:44:46.935Z,2.40
2023-04-02T06:47:38.826Z,2.30
2023-04-02T06:50:22.484Z,2.00
2023-04-02T06:53:05.388Z,2.20
2023-04-02T06:55:50.623Z,2.00
2023-04-02T06:58:27.756Z,2.00
2023-04-02T07:01:04.141Z,2.20
2023-04-02T07:03:40.019Z,2.20
2023-04-02T07:06:19.392Z,2.10
2023-04-02T07:08:55.153Z,2.10
2023-04-02T07:11:30.852Z,2.10
2023-04-02T07:14:14.843Z,2.10
2023-04-02T07:16:49.979Z,2.20
2023-04-02T07:19:26.399Z,2.20
2023-04-02T07:22:01.707Z,2.20
2023-04-02T07:24:37.546Z,2.00
2023-04-02T07:27:13.051Z,2.10
2023-04-02T07:29:46.816Z,2.20
2023-04-02T07:32:23.417Z,2.20
2023-04-02T07:34:58.198Z,1.80
2023-04-02T07:37:36.564Z,3.50
2023-04-02T07:40:19.041Z,3.60
2023-04-02T07:42:53.507Z,3.50
2023-04-02T07:45:28.635Z,3.40
2023-04-02T07:48:07.657Z,3.50
2023-04-02T07:50:44.552Z,3.80
2023-04-02T07:53:34.662Z,3.60
2023-04-02T07:56:15.281Z,3.50
2023-04-02T07:58:50.117Z,3.40
2023-04-02T08:01:27.889Z,3.60
2023-04-02T08:04:09.705Z,3.70
2023-04-02T08:06:47.214Z,3.40
2023-04-02T08:09:23.718Z,3.30
2023-04-02T08:12:01.673Z,3.40
2023-04-02T08:14:35.104Z,3.00
2023-04-02T08:17:09.335Z,3.50
2023-04-02T08:19:54.835Z,3.20
2023-04-02T08:22:29.198Z,3.30
2023-04-02T08:25:03.294Z,3.20
2023-04-02T08:27:39.095Z,3.40
2023-04-02T08:30:18.844Z,3.50
2023-04-02T08:32:52.689Z,3.10
2023-04-02T08:35:30.244Z,3.10
2023-04-02T08:38:09.805Z,3.40
2023-04-02T08:40:49.221Z,3.30
2023-04-02T08:44:00.225Z,3.60
2023-04-02T08:46:45.364Z,3.30
2023-04-02T08:49:25.041Z,3.50
2023-04-02T08:52:00.469Z,3.40
2023-04-02T08:54:44.166Z,3.60
2023-04-02T08:57:28.648Z,3.60
2023-04-02T09:00:15.826Z,3.30
2023-04-02T09:02:56.835Z,3.50
2023-04-02T09:05:37.651Z,3.60
2023-04-02T09:08:25.314Z,3.40
2023-04-02T09:11:07.539Z,3.20
2023-04-02T09:13:48.757Z,3.30
2023-04-02T09:16:38.822Z,6.00
2023-04-02T09:19:22.789Z,5.70
2023-04-02T09:22:11.296Z,5.20
2023-04-02T09:24:44.986Z,5.10
2023-04-02T09:27:33.894Z,5.00
2023-04-02T09:30:21.797Z,4.60
2023-04-02T09:32:57.544Z,5.60
2023-04-02T09:35:38.506Z,4.80
2023-04-02T09:38:31.814Z,5.10
2023-04-02T09:41:11.337Z,4.90
2023-04-02T09:43:45.091Z,4.60
2023-04-02T09:46:27.017Z,4.60
2023-04-02T09:49:03.813Z,4.40
2023-04-02T09:51:38.324Z,4.60
2023-04-02T09:54:17.428Z,4.60
2023-04-02T09:57:18.521Z,4.70
2023-04-02T10:00:39.533Z,4.30
2023-04-02T10:03:25.678Z,3.90
2023-04-02T10:06:11.958Z,3.90
2023-04-02T10:08:50.015Z,4.00
2023-04-02T10:11:43.719Z,4.00
2023-04-02T10:14:25.357Z,3.90
2023-04-02T10:17:05.698Z,3.90
2023-04-02T10:19:42.595Z,4.00
2023-04-02T10:22:20.561Z,3.70
2023-04-02T10:24:55.990Z,3.50
2023-04-02T10:27:37.983Z,3.50
2023-04-02T10:30:27.963Z,3.60
2023-04-02T10:33:06.757Z,3.30
2023-04-02T10:35:52.262Z,3.40
2023-04-02T10:38:45.973Z,3.40
2023-04-02T10:41:45.595Z,3.50
2023-04-02T10:44:46.392Z,3.60
2023-04-02T10:47:34.054Z,3.20
2023-04-02T10:50:32.845Z,3.30
2023-04-02T10:53:15.516Z,3.40
2023-04-02T10:55:55.405Z,3.10
2023-04-02T10:58:31.892Z,3.20
2023-04-02T11:01:11.300Z,3.10
2023-04-02T11:03:49.926Z,3.40
2023-04-02T11:06:28.795Z,4.10
2023-04-02T11:09:06.756Z,4.70
2023-04-02T11:11:44.598Z,4.70
2023-04-02T11:14:25.064Z,4.50
2023-04-02T11:17:04.350Z,4.20
2023-04-02T11:19:41.170Z,4.40
2023-04-02T11:22:24.075Z,4.20
2023-04-02T11:24:59.937Z,4.40
2023-04-02T11:27:35.558Z,4.00
2023-04-02T11:30:28.898Z,4.30
2023-04-02T11:33:44.570Z,3.90
2023-04-02T11:37:03.545Z,3.80
2023-04-02T11:39:59.217Z,4.20
2023-04-02T11:42:36.108Z,4.20
2023-04-02T11:45:53.537Z,3.80
2023-04-02T11:48:36.417Z,3.80
2023-04-02T11:51:59.222Z,3.90
2023-04-02T11:54:42.101Z,4.00
2023-04-02T11:57:30.757Z,3.70
2023-04-02T12:00:25.601Z,3.80
2023-04-02T12:03:21.187Z,3.70
2023-04-02T12:06:06.501Z,3.80
2023-04-02T12:08:58.083Z,3.70
2023-04-02T12:11:40.567Z,4.00
2023-04-02T12:14:45.828Z,3.70
2023-04-02T12:17:31.576Z,3.90
2023-04-02T12:20:21.921Z,3.80
2023-04-02T12:22:59.185Z,3.60
2023-04-02T12:25:40.468Z,3.60
2023-04-02T12:28:22.873Z,3.60
2023-04-02T12:33:45.637Z,3.70
2023-04-02T12:36:27.901Z,3.60
2023-04-02T12:39:05.431Z,3.60
2023-04-02T12:41:41.664Z,3.60
2023-04-02T12:44:22.129Z,3.80
2023-04-02T12:46:58.375Z,3.30
2023-04-02T12:49:39.090Z,3.60
2023-04-02T12:52:18.768Z,3.20
2023-04-02T12:54:54.794Z,3.70
2023-04-02T12:57:39.824Z,3.50
2023-04-02T13:00:39.292Z,3.40
2023-04-02T13:03:30.994Z,3.50
2023-04-02T13:06:22.453Z,3.20
2023-04-02T13:08:57.651Z,3.20
2023-04-02T13:11:41.103Z,3.40
2023-04-02T13:14:26.471Z,3.30
2023-04-02T13:17:01.350Z,3.10
2023-04-02T13:19:39.799Z,3.10
2023-04-02T13:22:37.056Z,3.30
2023-04-02T13:25:12.109Z,3.50
2023-04-02T13:27:49.269Z,3.50
2023-04-02T13:30:28.364Z,3.40
2023-04-02T13:33:01.811Z,3.40
2023-04-02T13:35:39.559Z,3.30
2023-04-02T13:38:13.404Z,3.50
2023-04-02T13:40:49.258Z,3.30
2023-04-02T13:43:27.262Z,3.60
2023-04-02T13:46:02.683Z,3.30
2023-04-02T13:48:38.387Z,3.20
2023-04-02T13:51:17.915Z,3.20
2023-04-02T13:53:57.717Z,3.10
2023-04-02T13:56:33.487Z,3.30
2023-04-02T13:59:07.847Z,3.50
2023-04-02T14:01:43.158Z,3.40
2023-04-02T14:04:26.738Z,3.60
2023-04-02T14:07:39.170Z,3.40
2023-04-02T14:10:30.984Z,3.10
2023-04-02T14:13:37.183Z,3.20
2023-04-02T14:16:32.495Z,3.00
2023-04-02T14:19:22.463Z,3.00
2023-04-02T14:22:12.239Z,3.10
2023-04-02T14:24:57.822Z,2.90
2023-04-02T14:27:48.470Z,3.10
2023-04-02T14:30:32.456Z,3.10
2023-04-02T14:33:14.708Z,2.80
2023-04-02T14:35:57.491Z,2.80
2023-04-02T14:38:40.580Z,2.60
2023-04-02T14:41:24.508Z,2.80
2023-04-02T14:44:03.189Z,2.80
2023-04-02T14:46:42.378Z,2.60
2023-04-02T14:49:28.259Z,2.70
2023-04-02T14:52:06.749Z,2.60
2023-04-02T14:54:51.970Z,2.60
2023-04-02T14:57:32.559Z,2.30
2023-04-02T15:00:28.794Z,2.60
2023-04-02T15:03:11.407Z,2.50
2023-04-02T15:05:50.214Z,2.50
2023-04-02T15:08:28.590Z,2.40
2023-04-02T15:11:09.421Z,2.60
2023-04-02T15:13:50.046Z,2.30
2023-04-02T15:16:28.271Z,2.40
2023-04-02T15:19:03.758Z,2.50
2023-04-02T15:21:59.946Z,2.20
2023-04-02T15:24:47.746Z,2.30
2023-04-02T15:27:37.200Z,2.50
2023-04-02T15:30:19.527Z,2.30
2023-04-02T15:32:54.307Z,2.30
2023-04-02T15:35:40.519Z,2.40
2023-04-02T15:38:19.257Z,2.40
2023-04-02T15:41:03.140Z,2.30
2023-04-02T15:43:49.174Z,2.40
2023-04-02T15:46:40.726Z,2.30
2023-04-02T15:49:36.916Z,2.70
2023-04-02T15:52:17.118Z,2.30
2023-04-02T15:55:09.799Z,2.70
2023-04-02T15:58:10.333Z,2.40
2023-04-02T16:00:50.626Z,2.30
2023-04-02T16:03:56.187Z,2.50
2023-04-02T16:06:34.239Z,2.40
2023-04-02T16:09:26.082Z,2.40
2023-04-02T16:12:12.903Z,2.60
2023-04-02T16:14:48.390Z,2.40
2023-04-02T16:17:28.078Z,2.30
2023-04-02T16:20:15.747Z,2.10
2023-04-02T16:23:00.481Z,2.50
2023-04-02T16:25:40.908Z,2.30
2023-04-02T16:28:28.317Z,2.30
2023-04-02T16:31:12.570Z,2.60
2023-04-02T16:34:03.571Z,2.30
2023-04-02T16:36:54.473Z,2.50
2023-04-02T16:39:38.613Z,2.40
2023-04-02T16:42:26.476Z,2.30
2023-04-02T16:45:19.210Z,2.60
2023-04-02T16:48:10.465Z,2.50
2023-04-02T16:50:58.191Z,2.70
2023-04-02T16:53:58.407Z,2.40
2023-04-02T16:56:59.413Z,2.40
2023-04-02T16:59:42.785Z,2.30
2023-04-02T17:02:32.862Z,2.50
2023-04-02T17:05:21.540Z,2.30
2023-04-02T17:08:08.786Z,2.30
2023-04-02T17:10:53.128Z,2.40
2023-04-02T17:13:35.359Z,2.40
2023-04-02T17:16:20.904Z,2.30
2023-04-02T17:18:59.193Z,2.40
2023-04-02T17:21:33.612Z,2.30
2023-04-02T17:24:24.701Z,2.30
2023-04-02T17:27:05.025Z,2.40
2023-04-02T17:29:42.303Z,2.60
2023-04-02T17:32:22.766Z,2.30
2023-04-02T17:34:59.420Z,2.40
2023-04-02T17:37:43.462Z,2.40
2023-04-02T17:40:29.352Z,2.40
2023-04-02T17:43:14.374Z,2.50
2023-04-02T17:45:54.492Z,2.40
2023-04-02T17:48:36.049Z,2.60
2023-04-02T17:51:22.342Z,2.50
2023-04-02T17:54:12.805Z,2.60
2023-04-02T17:57:07.402Z,2.60
2023-04-02T17:59:57.278Z,2.60
2023-04-02T18:02:47.242Z,2.50
2023-04-02T18:05:31.975Z,2.80
2023-04-02T18:08:22.662Z,2.90
2023-04-02T18:11:12.836Z,2.70
2023-04-02T18:13:57.655Z,2.70
2023-04-02T18:16:48.327Z,2.90
2023-04-02T18:19:35.342Z,2.90
2023-04-02T18:22:22.711Z,2.90
2023-04-02T18:25:24.711Z,2.70
2023-04-02T18:28:15.040Z,2.80
2023-04-02T18:31:00.067Z,2.80
2023-04-02T18:34:07.929Z,3.10
2023-04-02T18:36:58.222Z,3.30
2023-04-02T18:39:43.508Z,2.70
2023-04-02T18:42:29.881Z,3.10
2023-04-02T18:45:15.872Z,2.90
2023-04-02T18:48:01.463Z,3.00
2023-04-02T18:50:48.262Z,3.00
2023-04-02T18:53:28.815Z,3.30
2023-04-02T18:56:10.173Z,3.30
2023-04-02T18:58:57.203Z,3.10
2023-04-02T19:01:38.755Z,3.30
2023-04-02T19:04:19.501Z,3.30
2023-04-02T19:06:58.275Z,3.50
2023-04-02T19:09:38.582Z,3.40
2023-04-02T19:12:21.448Z,3.60
2023-04-02T19:15:02.679Z,3.70
2023-04-02T19:20:34.161Z,3.70
2023-04-02T19:23:30.462Z,3.60
2023-04-02T19:26:09.235Z,3.60
2023-04-02T19:28:50.557Z,3.80
2023-04-02T19:31:44.564Z,3.70
2023-04-02T19:34:32.816Z,3.50
2023-04-02T19:37:14.312Z,3.40
2023-04-02T19:40:16.442Z,3.70
2023-04-02T19:42:54.344Z,3.50
2023-04-02T19:45:36.395Z,3.70
2023-04-02T19:48:20.297Z,3.70
2023-04-02T19:50:56.273Z,3.50
2023-04-02T19:53:30.143Z,3.50
2023-04-02T19:56:05.785Z,3.70
2023-04-02T19:58:42.890Z,3.60
2023-04-02T20:01:20.191Z,3.30
2023-04-02T20:03:55.152Z,3.30
2023-04-02T20:06:30.061Z,3.20
2023-04-02T20:09:05.134Z,3.70
2023-04-02T20:11:42.210Z,3.40
2023-04-02T20:14:16.741Z,3.50
2023-04-02T20:16:51.966Z,3.90
2023-04-02T20:19:32.192Z,3.60
2023-04-02T20:22:08.391Z,3.70
2023-04-02T20:24:43.532Z,3.30
2023-04-02T20:27:20.191Z,4.00
2023-04-02T20:29:54.885Z,3.20
2023-04-02T20:32:28.982Z,3.60
2023-04-02T20:35:09.565Z,3.70
2023-04-02T20:37:45.830Z,3.80
2023-04-02T20:40:25.078Z,4.00
2023-04-02T20:43:00.562Z,3.40
2023-04-02T20:45:35.773Z,3.40
2023-04-02T20:48:13.701Z,3.50
2023-04-02T20:50:49.140Z,3.70
2023-04-02T20:53:27.403Z,3.50
2023-04-02T20:56:10.207Z,3.40
2023-04-02T20:58:49.287Z,3.50
2023-04-02T21:01:26.700Z,3.50
2023-04-02T21:04:06.992Z,3.60
2023-04-02T21:06:46.018Z,3.60
2023-04-02T21:09:23.457Z,3.50
2023-04-02T21:12:01.104Z,3.30
2023-04-02T21:14:39.253Z,3.50
2023-04-02T21:17:16.342Z,3.30
2023-04-02T21:19:52.559Z,3.40
2023-04-02T21:22:27.305Z,3.10
2023-04-02T21:25:04.105Z,3.30
2023-04-02T21:27:39.099Z,3.20
2023-04-02T21:30:14.997Z,3.20
2023-04-02T21:32:50.761Z,3.10
2023-04-02T21:35:26.674Z,3.00
2023-04-02T21:38:03.584Z,2.90
2023-04-02T21:40:40.249Z,2.90
2023-04-02T21:43:15.056Z,2.80
2023-04-02T21:45:50.124Z,2.80
2023-04-02T21:48:27.203Z,2.90
2023-04-02T21:51:10.490Z,3.20
2023-04-02T21:53:47.613Z,2.80
2023-04-02T21:56:25.006Z,2.90
2023-04-02T21:59:02.143Z,3.10
2023-04-02T22:01:40.210Z,2.70
2023-04-02T22:04:18.763Z,2.90
2023-04-02T22:06:56.299Z,2.60
2023-04-02T22:09:31.849Z,2.70
2023-04-02T22:12:09.141Z,2.40
2023-04-02T22:14:48.112Z,2.50
2023-04-02T22:17:22.856Z,2.50
2023-04-02T22:19:56.706Z,2.50
2023-04-02T22:22:32.041Z,2.40
2023-04-02T22:25:11.682Z,2.50
2023-04-02T22:27:47.026Z,2.30
2023-04-02T22:30:26.670Z,2.30
2023-04-02T22:33:01.941Z,2.50
2023-04-02T22:35:37.371Z,2.10
2023-04-02T22:38:14.229Z,2.20
2023-04-02T22:40:49.114Z,2.30
2023-04-02T22:43:29.267Z,2.20
2023-04-02T22:46:07.391Z,2.20
2023-04-02T22:48:46.501Z,2.20
2023-04-02T22:51:26.393Z,2.10
2023-04-02T22:54:01.085Z,2.00
2023-04-02T22:56:38.902Z,2.20
2023-04-02T22:59:15.595Z,2.10
2023-04-02T23:01:55.386Z,1.80
2023-04-02T23:04:32.302Z,2.00
2023-04-02T23:07:08.434Z,1.80
2023-04-02T23:09:45.872Z,1.80
2023-04-02T23:12:23.549Z,2.00
2023-04-02T23:14:59.445Z,1.90
2023-04-02T23:17:35.969Z,1.80
2023-04-02T23:20:14.007Z,1.80
2023-04-02T23:22:51.642Z,2.00
2023-04-02T23:25:27.455Z,1.90
2023-04-02T23:28:03.307Z,1.80
2023-04-02T23:30:39.876Z,2.00
2023-04-02T23:33:16.038Z,1.70
2023-04-02T23:35:53.180Z,1.90
2023-04-02T23:38:30.918Z,1.90
2023-04-02T23:41:06.626Z,2.00
2023-04-02T23:43:41.151Z,1.60
2023-04-02T23:46:18.149Z,1.70
2023-04-02T23:48:55.923Z,1.70
2023-04-02T23:51:36.537Z,1.50
2023-04-02T23:54:14.373Z,1.70
2023-04-02T23:56:51.657Z,1.60
2023-04-02T23:59:30.994Z,1.40
